Time;durP1;ratioP1;P1;durP2;ratioP2;P2;SDS_P1;SDS_P2;PMS_P1;PMS_P2;Temp;Humidity;BMP_temperature;BMP_pressure;BME280_temperature;BME280_humidity;BME280_pressure;Samples;Min_cycle;Max_cycle;Signal;HPM_P1;HPM_P2
2021/07/05 00:02:09;;;;;;;;;2.00;2.00;;;;;26.36;44.55;100805.50;5059020;28;45551;-84
2021/07/05 00:04:36;;;;;;;;;2.00;2.00;;;;;26.49;44.75;100842.81;5072631;28;45475;-84
2021/07/05 00:07:02;;;;;;;;;1.00;1.00;;;;;26.39;44.68;100837.91;5065039;27;45551;-84
2021/07/05 00:09:27;;;;;;;;;1.00;1.00;;;;;26.29;44.70;100827.66;5059934;28;45339;-85
2021/07/05 00:11:53;;;;;;;;;3.25;2.00;;;;;26.49;45.11;100866.03;5067806;28;45261;-84
2021/07/05 00:14:18;;;;;;;;;3.67;1.00;;;;;26.48;44.54;100870.53;5075374;28;45298;-84
2021/07/05 00:16:44;;;;;;;;;1.33;1.33;;;;;26.49;44.80;100863.34;5063578;28;45676;-85
2021/07/05 00:19:09;;;;;;;;;1.25;1.25;;;;;26.46;44.47;100848.59;5063309;28;45271;-84
2021/07/05 00:21:35;;;;;;;;;1.25;1.25;;;;;26.43;44.96;100813.47;5063659;28;45235;-84
2021/07/05 00:24:00;;;;;;;;;1.00;1.00;;;;;26.38;44.67;100792.78;5063342;28;45169;-83
2021/07/05 00:26:26;;;;;;;;;1.00;1.00;;;;;26.51;45.23;100814.09;5062721;28;45228;-84
2021/07/05 00:28:51;;;;;;;;;1.00;1.00;;;;;26.53;44.82;100816.53;5075374;28;45181;-84
2021/07/05 00:31:17;;;;;;;;;2.00;2.00;;;;;26.42;45.15;100801.97;5085702;28;45550;-84
2021/07/05 00:33:42;;;;;;;;;2.00;1.67;;;;;26.47;45.06;100825.38;5067577;27;45166;-84
2021/07/05 00:36:08;;;;;;;;;1.33;1.00;;;;;26.40;45.11;100809.38;5070263;28;45325;-84
2021/07/05 00:38:33;;;;;;;;;1.00;1.00;;;;;26.40;45.07;100818.19;5068073;28;45255;-84
2021/07/05 00:40:59;;;;;;;;;2.33;2.00;;;;;26.52;44.67;100834.38;5063225;28;45338;-84
2021/07/05 00:43:24;;;;;;;;;1.00;1.00;;;;;26.37;45.01;100805.28;5062681;28;45567;-84
2021/07/05 00:45:49;;;;;;;;;1.75;0.75;;;;;26.38;44.71;100792.78;5062954;28;46483;-84
2021/07/05 00:48:15;;;;;;;;;3.67;1.33;;;;;26.49;44.68;100813.47;5061714;28;45366;-85
2021/07/05 00:50:40;;;;;;;;;1.33;1.33;;;;;26.38;44.81;100790.94;5063230;28;45245;-85
2021/07/05 00:53:06;;;;;;;;;1.33;1.33;;;;;26.52;44.54;100822.91;5063086;28;45561;-85
2021/07/05 00:55:32;;;;;;;;;2.25;1.00;;;;;26.51;44.87;100822.09;5062587;28;45477;-83
2021/07/05 00:57:59;;;;;;;;;1.00;1.00;;;;;26.49;44.74;100805.47;5069597;28;45303;-83
2021/07/05 01:00:26;;;;;;;;;3.67;2.00;;;;;26.45;45.08;100787.44;5078647;28;45431;-83
2021/07/05 01:02:53;;;;;;;;;2.00;2.00;;;;;26.51;44.86;100794.59;5075886;28;45568;-84
2021/07/05 01:05:21;;;;;;;;;2.00;1.00;;;;;26.47;44.92;100788.84;5080526;28;45639;-84
2021/07/05 01:07:48;;;;;;;;;1.33;1.33;;;;;26.36;44.95;100770.84;5061614;28;45307;-84
2021/07/05 01:10:16;;;;;;;;;1.00;1.00;;;;;26.42;44.77;100772.63;5077292;28;45331;-84
2021/07/05 01:12:42;;;;;;;;;1.00;1.00;;;;;26.48;44.97;100787.00;5066578;28;45246;-84
2021/07/05 01:15:10;;;;;;;;;1.75;1.75;;;;;26.45;44.93;100790.09;5068823;28;45306;-84
2021/07/05 01:17:36;;;;;;;;;1.00;1.00;;;;;26.47;45.00;100793.38;5061403;28;45322;-84
2021/07/05 01:20:04;;;;;;;;;3.00;1.33;;;;;26.45;45.14;100790.09;5061637;28;45295;-84
2021/07/05 01:22:29;;;;;;;;;1.25;1.25;;;;;26.39;44.78;100768.53;5060151;28;45962;-84
2021/07/05 01:24:55;;;;;;;;;2.75;1.50;;;;;26.47;45.20;100774.69;5060175;28;46483;-84
2021/07/05 01:27:21;;;;;;;;;1.00;1.00;;;;;26.32;45.27;100748.25;5066494;28;45457;-83
2021/07/05 01:29:46;;;;;;;;;1.00;1.00;;;;;26.45;44.83;100763.41;5074244;28;45442;-84
2021/07/05 01:32:12;;;;;;;;;1.33;1.33;;;;;26.41;45.17;100752.34;5074513;28;45208;-84
2021/07/05 01:34:38;;;;;;;;;2.33;1.00;;;;;26.45;44.59;100758.91;5060939;28;45655;-84
2021/07/05 01:37:06;;;;;;;;;2.25;2.25;;;;;26.40;44.85;100743.50;5067709;28;45477;-84
2021/07/05 01:39:32;;;;;;;;;3.33;2.00;;;;;26.38;44.75;100734.91;5068673;28;45361;-84
2021/07/05 01:41:58;;;;;;;;;1.00;1.00;;;;;26.44;44.83;100740.47;5076506;28;45539;-83
2021/07/05 01:44:23;;;;;;;;;1.50;1.00;;;;;26.41;44.67;100733.66;5060797;28;45365;-84
2021/07/05 01:46:48;;;;;;;;;1.00;1.00;;;;;26.34;44.79;100711.53;5061042;28;45229;-84
2021/07/05 01:49:14;;;;;;;;;0.67;0.67;;;;;26.37;44.84;100719.09;5061105;28;45205;-84
2021/07/05 01:51:40;;;;;;;;;0.00;0.00;;;;;26.43;45.12;100731.59;5061137;28;45579;-84
2021/07/05 01:54:06;;;;;;;;;2.67;2.67;;;;;26.42;45.15;100732.63;5060857;28;46436;-84
2021/07/05 01:56:32;;;;;;;;;4.00;2.00;;;;;26.43;45.02;100728.94;5066855;28;45241;-83
2021/07/05 01:58:58;;;;;;;;;0.00;0.00;;;;;26.48;45.49;100745.16;5068387;28;45173;-83
2021/07/05 02:01:23;;;;;;;;;1.00;1.00;;;;;26.49;44.72;100745.97;5061195;28;45340;-83
2021/07/05 02:03:49;;;;;;;;;1.00;1.00;;;;;26.46;44.93;100741.88;5074331;28;46238;-83
2021/07/05 02:06:15;;;;;;;;;0.75;0.75;;;;;26.50;44.83;100739.59;5031470;27;1191859;-84
2021/07/05 02:08:41;;;;;;;;;2.00;2.00;;;;;26.34;44.81;100716.84;5066799;28;45437;-83
2021/07/05 02:11:06;;;;;;;;;4.00;2.00;;;;;26.47;44.88;100734.69;5061521;28;45707;-83
2021/07/05 02:13:35;;;;;;;;;1.75;1.75;;;;;26.40;44.90;100729.34;5074151;28;45878;-83
2021/07/05 02:16:01;;;;;;;;;1.00;1.00;;;;;26.47;45.09;100743.50;5060599;28;45182;-84
2021/07/05 02:18:28;;;;;;;;;1.33;1.33;;;;;26.28;44.97;100713.22;5060327;28;45337;-84
2021/07/05 02:20:56;;;;;;;;;2.00;2.00;;;;;26.48;44.83;100744.31;5061596;28;45600;-84
2021/07/05 02:23:22;;;;;;;;;1.50;1.00;;;;;26.46;44.89;100730.38;5061455;28;46346;-84
2021/07/05 02:25:49;;;;;;;;;1.00;1.00;;;;;26.33;44.96;100713.41;5060770;28;45455;-84
2021/07/05 02:28:17;;;;;;;;;1.50;1.50;;;;;26.47;44.91;100732.00;5061226;28;45399;-84
2021/07/05 02:30:45;;;;;;;;;3.33;1.67;;;;;26.45;44.81;100718.91;5075560;28;45480;-84
2021/07/05 02:33:11;;;;;;;;;2.00;1.00;;;;;26.32;45.11;100692.25;5077412;28;47974;-84
2021/07/05 02:35:38;;;;;;;;;2.00;2.00;;;;;26.42;45.04;100703.28;5079108;27;45300;-84
2021/07/05 02:38:08;;;;;;;;;2.33;1.00;;;;;26.46;45.10;100711.72;5079311;27;45321;-84
2021/07/05 02:40:37;;;;;;;;;3.00;3.00;;;;;26.39;44.82;100699.19;5061053;28;45591;-84
2021/07/05 02:43:03;;;;;;;;;1.00;1.00;;;;;26.27;45.10;100691.06;5058804;28;47075;-84
2021/07/05 02:45:31;;;;;;;;;1.00;1.00;;;;;26.37;45.16;100701.25;5061170;28;45236;-84
2021/07/05 02:47:59;;;;;;;;;1.67;1.67;;;;;26.43;44.99;100712.94;5061154;28;45302;-84
2021/07/05 02:50:25;;;;;;;;;2.00;2.00;;;;;26.45;45.05;100710.06;5061100;28;45310;-83
2021/07/05 02:52:53;;;;;;;;;1.00;1.00;;;;;26.44;45.12;100703.13;5060786;28;45397;-84
2021/07/05 02:55:19;;;;;;;;;3.00;1.00;;;;;26.27;44.85;100675.06;5060682;28;45273;-84
2021/07/05 02:57:45;;;;;;;;;1.67;1.00;;;;;26.44;45.33;100705.78;5060633;28;45279;-84
2021/07/05 03:00:14;;;;;;;;;3.00;1.33;;;;;26.37;44.90;100687.09;5060708;28;45525;-84
2021/07/05 03:02:41;;;;;;;;;2.00;2.00;;;;;26.44;45.27;100703.13;5060582;28;45411;-83
2021/07/05 03:05:09;;;;;;;;;1.00;1.00;;;;;26.45;44.96;100697.56;5079647;28;45869;-83
2021/07/05 03:07:35;;;;;;;;;0.67;0.67;;;;;26.20;44.88;100650.28;5062434;28;45216;-84
2021/07/05 03:10:01;;;;;;;;;1.00;1.00;;;;;26.43;44.80;100669.44;5060691;28;45438;-84
2021/07/05 03:12:27;;;;;;;;;1.00;1.00;;;;;26.37;45.10;100661.25;5065750;28;46999;-83
2021/07/05 03:14:55;;;;;;;;;1.00;1.00;;;;;26.34;44.98;100656.34;5070031;28;45248;-83
2021/07/05 03:17:21;;;;;;;;;1.00;1.00;;;;;26.38;45.00;100668.22;5060827;28;45343;-83
2021/07/05 03:19:46;;;;;;;;;0.33;0.33;;;;;26.47;44.83;100676.00;5060645;28;45313;-84
2021/07/05 03:22:13;;;;;;;;;1.33;0.00;;;;;26.29;45.13;100641.00;5060448;28;45364;-84
2021/07/05 03:24:39;;;;;;;;;2.00;0.33;;;;;26.27;44.83;100647.56;5060306;28;45305;-81
2021/07/05 03:27:05;;;;;;;;;1.00;1.00;;;;;26.31;45.09;100637.31;5060226;28;45223;-84
2021/07/05 03:29:31;;;;;;;;;2.00;2.00;;;;;26.41;44.93;100637.66;5064550;28;45491;-84
2021/07/05 03:31:58;;;;;;;;;1.00;1.00;;;;;26.47;44.90;100646.66;5075872;28;47921;-84
2021/07/05 03:34:23;;;;;;;;;2.67;1.33;;;;;26.34;45.07;100631.50;5071148;28;45235;-83
2021/07/05 03:36:48;;;;;;;;;1.00;1.00;;;;;26.27;44.86;100620.91;5060885;28;45651;-83
2021/07/05 03:39:14;;;;;;;;;1.00;1.00;;;;;26.32;45.05;100626.41;5067053;28;45310;-84
2021/07/05 03:41:39;;;;;;;;;1.75;1.75;;;;;26.29;44.80;100625.00;5060059;28;46351;-84
2021/07/05 03:44:05;;;;;;;;;0.00;0.00;;;;;26.47;44.61;100658.13;5060521;28;45415;-84
2021/07/05 03:46:30;;;;;;;;;1.00;1.00;;;;;26.37;44.61;100634.59;5060972;28;45232;-84
2021/07/05 03:48:56;;;;;;;;;0.00;0.00;;;;;26.26;45.27;100616.59;5060455;28;45478;-84
2021/07/05 03:51:21;;;;;;;;;1.33;1.33;;;;;26.42;45.05;100644.59;5058600;28;47922;-84
2021/07/05 03:53:46;;;;;;;;;0.00;0.00;;;;;26.35;44.98;100642.00;5060395;28;45339;-84
2021/07/05 03:56:12;;;;;;;;;0.33;0.33;;;;;26.37;45.16;100641.75;5060021;28;45801;-84
2021/07/05 03:58:37;;;;;;;;;1.00;1.00;;;;;26.43;45.05;100648.09;5060042;28;45358;-84
2021/07/05 04:01:03;;;;;;;;;3.00;1.00;;;;;26.43;45.28;100656.09;5059890;28;46294;-84
2021/07/05 04:03:28;;;;;;;;;2.00;2.00;;;;;26.41;44.73;100662.44;5063334;28;45337;-83
2021/07/05 04:05:54;;;;;;;;;1.00;1.00;;;;;26.41;45.13;100653.66;5075749;27;45298;-84
2021/07/05 04:08:22;;;;;;;;;2.50;2.00;;;;;26.40;44.99;100652.84;5058430;28;45510;-84
2021/07/05 04:10:48;;;;;;;;;1.00;1.00;;;;;26.43;45.01;100656.09;5059508;28;45300;-84
2021/07/05 04:13:14;;;;;;;;;2.00;0.33;;;;;26.45;44.77;100668.22;5069824;28;45380;-83
2021/07/05 04:15:39;;;;;;;;;1.00;1.00;;;;;26.27;44.82;100640.41;5063160;28;45405;-83
2021/07/05 04:18:06;;;;;;;;;1.00;1.00;;;;;26.36;45.04;100664.16;5059863;28;45504;-83
2021/07/05 04:20:31;;;;;;;;;2.00;2.00;;;;;26.32;45.37;100661.06;5059199;28;45457;-83
2021/07/05 04:22:57;;;;;;;;;1.00;1.00;;;;;26.28;45.01;100655.34;5058275;28;45379;-83
2021/07/05 04:25:23;;;;;;;;;2.00;2.00;;;;;26.41;44.74;100678.44;5058099;28;45347;-84
2021/07/05 04:27:49;;;;;;;;;1.00;1.00;;;;;26.44;45.16;100689.78;5059481;28;45505;-84
2021/07/05 04:30:16;;;;;;;;;1.33;1.00;;;;;26.43;45.14;100688.94;5069717;28;45274;-83
2021/07/05 04:32:43;;;;;;;;;1.33;0.67;;;;;26.37;44.83;100673.75;5069050;28;45310;-84
2021/07/05 04:35:12;;;;;;;;;1.00;1.00;;;;;26.36;44.98;100670.28;5058116;28;45618;-84
2021/07/05 04:37:38;;;;;;;;;3.00;2.00;;;;;26.43;45.15;100688.09;5070546;28;45459;-83
2021/07/05 04:40:08;;;;;;;;;2.00;2.00;;;;;26.33;44.96;100668.06;5060619;28;46294;-84
2021/07/05 04:42:34;;;;;;;;;1.00;1.00;;;;;26.20;44.64;100646.78;5059478;28;45483;-83
2021/07/05 04:45:00;;;;;;;;;1.00;1.00;;;;;26.29;45.04;100657.00;5058867;28;45505;-84
2021/07/05 04:47:25;;;;;;;;;0.25;0.25;;;;;26.37;44.59;100669.25;5059582;28;45355;-84
2021/07/05 04:49:50;;;;;;;;;1.00;1.00;;;;;26.36;45.48;100677.47;5059246;28;45399;-83
2021/07/05 04:52:16;;;;;;;;;2.00;1.00;;;;;26.33;45.26;100677.91;5059708;28;45426;-83
2021/07/05 04:54:41;;;;;;;;;1.00;1.00;;;;;26.39;45.03;100682.38;5059210;28;45457;-83
2021/07/05 04:57:10;;;;;;;;;2.00;2.00;;;;;26.22;45.07;100648.22;5059081;28;45331;-83
2021/07/05 04:59:37;;;;;;;;;1.00;1.00;;;;;26.29;44.58;100665.00;5061434;28;45287;-83
2021/07/05 05:02:02;;;;;;;;;1.00;1.00;;;;;26.41;45.08;100686.44;5062654;28;45268;-83
2021/07/05 05:04:28;;;;;;;;;1.25;1.00;;;;;26.34;45.10;100671.53;5074441;28;45285;-83
2021/07/05 05:06:53;;;;;;;;;1.00;1.00;;;;;26.37;44.86;100674.59;5069035;28;45467;-83
2021/07/05 05:09:23;;;;;;;;;1.75;1.75;;;;;26.43;44.91;100682.75;5061306;28;48540;-83
2021/07/05 05:11:48;;;;;;;;;1.00;1.00;;;;;26.28;44.78;100657.22;5073931;28;45323;-83
2021/07/05 05:14:13;;;;;;;;;1.00;1.00;;;;;26.33;45.00;100662.72;5062885;28;45533;-83
2021/07/05 05:16:39;;;;;;;;;2.33;2.33;;;;;26.32;44.85;100661.06;5062651;28;45236;-82
2021/07/05 05:19:04;;;;;;;;;1.00;0.00;;;;;26.41;45.45;100670.44;5062389;28;45485;-82
2021/07/05 05:21:32;;;;;;;;;1.25;1.25;;;;;26.45;44.98;100673.56;5062492;28;45232;-80
2021/07/05 05:23:57;;;;;;;;;2.00;1.00;;;;;26.37;45.23;100649.75;5061223;28;45256;-72
2021/07/05 05:26:22;;;;;;;;;1.00;1.00;;;;;26.21;44.83;100632.41;5069493;28;45665;-80
2021/07/05 05:28:48;;;;;;;;;0.25;0.25;;;;;26.46;45.06;100671.72;5062186;28;45520;-72
2021/07/05 05:31:14;;;;;;;;;0.00;0.00;;;;;26.45;44.82;100667.38;5080871;28;45421;-75
2021/07/05 05:33:39;;;;;;;;;1.00;1.00;;;;;26.34;44.84;100642.19;5063931;28;45324;-75
2021/07/05 05:36:04;;;;;;;;;1.00;1.00;;;;;26.32;44.57;100646.91;5062244;28;45371;-76
2021/07/05 05:38:30;;;;;;;;;1.00;1.00;;;;;26.32;44.78;100649.59;5073774;28;48169;-75
2021/07/05 05:40:56;;;;;;;;;1.00;1.00;;;;;26.37;44.83;100655.09;5074323;28;45437;-81
2021/07/05 05:43:22;;;;;;;;;1.00;1.00;;;;;26.37;44.71;100658.59;5068404;28;45429;-77
2021/07/05 05:45:47;;;;;;;;;1.00;1.00;;;;;26.26;44.71;100633.41;5080615;28;45505;-79
2021/07/05 05:48:12;;;;;;;;;1.00;1.00;;;;;26.28;45.02;100635.88;5072376;28;45875;-80
2021/07/05 05:50:38;;;;;;;;;1.00;1.00;;;;;26.31;44.91;100635.44;5074578;28;45252;-83
2021/07/05 05:53:04;;;;;;;;;1.00;1.00;;;;;26.16;45.23;100623.22;5062900;28;45251;-79
2021/07/05 05:55:29;;;;;;;;;2.00;2.00;;;;;26.08;45.31;100607.47;5063788;28;45219;-78
2021/07/05 05:57:55;;;;;;;;;1.00;1.00;;;;;26.32;44.89;100634.41;5071929;28;45315;-78
2021/07/05 06:00:23;;;;;;;;;2.00;2.00;;;;;26.49;45.57;100665.94;5072073;27;45240;-79
2021/07/05 06:02:49;;;;;;;;;0.00;0.00;;;;;26.31;44.96;100640.75;5070613;28;45475;-78
2021/07/05 06:05:15;;;;;;;;;1.00;1.00;;;;;26.32;45.09;100637.06;5068370;28;45676;-74
2021/07/05 06:07:47;;;;;;;;;1.33;0.33;;;;;26.49;45.45;100657.94;5060827;28;45467;-80
2021/07/05 06:10:12;;;;;;;;;0.67;0.67;;;;;26.41;45.24;100650.97;5058519;28;45299;-76
2021/07/05 06:12:38;;;;;;;;;3.00;2.50;;;;;26.43;45.41;100648.09;5078647;28;45251;-78
2021/07/05 06:15:07;;;;;;;;;0.33;0.33;;;;;26.42;45.45;100644.59;5068113;28;45364;-73
2021/07/05 06:17:33;;;;;;;;;2.00;2.00;;;;;26.36;45.27;100632.13;5061005;28;45689;-73
2021/07/05 06:19:58;;;;;;;;;2.00;2.00;;;;;26.32;45.20;100629.06;5061507;28;45421;-72
2021/07/05 06:22:30;;;;;;;;;2.00;2.00;;;;;26.26;45.22;100622.75;5061732;28;45312;-73
2021/07/05 06:24:57;;;;;;;;;0.00;0.00;;;;;26.43;45.22;100648.09;5061371;28;45375;-73
2021/07/05 06:27:23;;;;;;;;;0.00;0.00;;;;;26.49;45.50;100657.94;5073351;28;46432;-73
2021/07/05 06:29:49;;;;;;;;;1.50;1.50;;;;;26.27;45.44;100619.06;5067841;28;45328;-73
2021/07/05 06:32:14;;;;;;;;;0.00;0.00;;;;;26.33;45.52;100638.72;5073936;28;45464;-73
2021/07/05 06:34:40;;;;;;;;;1.00;1.00;;;;;26.31;44.85;100638.09;5061335;28;45430;-73
2021/07/05 06:37:07;;;;;;;;;2.75;1.50;;;;;26.49;45.10;100668.63;5067709;28;46309;-73
2021/07/05 06:39:32;;;;;;;;;1.00;1.00;;;;;26.50;45.05;100671.06;5066289;28;45221;-72
2021/07/05 06:41:58;;;;;;;;;2.00;2.00;;;;;26.37;45.20;100641.75;5061208;28;45511;-72
2021/07/05 06:44:23;;;;;;;;;3.00;1.00;;;;;26.32;45.01;100636.25;5061017;28;45291;-72
2021/07/05 06:46:49;;;;;;;;;1.67;1.00;;;;;26.47;45.31;100659.97;5061285;28;45663;-72
2021/07/05 06:49:18;;;;;;;;;1.00;1.00;;;;;26.30;45.03;100636.47;5061039;28;45457;-73
2021/07/05 06:51:48;;;;;;;;;1.00;1.00;;;;;26.36;45.14;100650.81;5061202;28;45321;-73
2021/07/05 06:54:14;;;;;;;;;1.00;1.00;;;;;26.39;45.09;100645.84;5059647;28;45415;-73
2021/07/05 06:56:40;;;;;;;;;1.75;1.75;;;;;26.40;45.37;100649.34;5060636;28;46341;-73
2021/07/05 06:59:05;;;;;;;;;2.00;2.00;;;;;26.24;45.35;100632.81;5060860;28;45326;-73
2021/07/05 07:01:31;;;;;;;;;2.00;2.00;;;;;26.51;45.22;100667.38;5061541;28;45370;-73
2021/07/05 07:03:56;;;;;;;;;1.00;1.00;;;;;26.45;45.30;100665.53;5080487;28;45573;-73
2021/07/05 07:06:22;;;;;;;;;0.67;0.67;;;;;26.52;45.06;100676.16;5069927;28;46783;-73
2021/07/05 07:08:48;;;;;;;;;0.67;0.67;;;;;26.43;45.07;100661.44;5062507;28;45390;-73
2021/07/05 07:11:13;;;;;;;;;2.00;1.00;;;;;26.54;44.92;100682.13;5070870;28;45428;-73
2021/07/05 07:13:40;;;;;;;;;2.00;2.00;;;;;26.48;45.08;100681.13;5060130;28;45200;-73
2021/07/05 07:16:06;;;;;;;;;1.75;1.75;;;;;26.55;45.35;100697.09;5073609;28;46337;-73
2021/07/05 07:21:05;;;;;;;;;1.33;1.33;;;;;26.31;45.03;100670.09;5059919;28;45661;-73
2021/07/05 07:23:30;;;;;;;;;2.00;2.00;;;;;26.50;45.37;100702.25;5060660;28;45271;-73
2021/07/05 07:25:56;;;;;;;;;2.00;2.00;;;;;26.46;44.99;100693.03;5058837;28;47015;-73
2021/07/05 07:28:21;;;;;;;;;1.00;1.00;;;;;26.51;45.19;100703.88;5060365;28;45418;-73
2021/07/05 07:30:47;;;;;;;;;1.00;1.00;;;;;26.44;44.87;100679.09;5075430;28;45284;-73
2021/07/05 07:33:12;;;;;;;;;1.00;1.00;;;;;26.37;45.04;100663.09;5065385;28;45384;-73
2021/07/05 07:35:38;;;;;;;;;1.50;1.00;;;;;26.53;44.80;100688.47;5060364;28;45575;-73
2021/07/05 07:38:04;;;;;;;;;1.00;1.00;;;;;26.55;45.00;100693.59;5072981;28;45442;-73
2021/07/05 07:40:34;;;;;;;;;1.00;1.00;;;;;26.49;45.08;100684.63;5060322;28;45489;-73
2021/07/05 07:42:59;;;;;;;;;3.00;1.25;;;;;26.46;45.06;100682.38;5076060;28;45676;-73
2021/07/05 07:45:25;;;;;;;;;1.00;1.00;;;;;26.59;45.07;100690.31;5072426;28;45541;-73
2021/07/05 07:47:51;;;;;;;;;1.33;1.00;;;;;26.56;45.02;100684.56;5064135;28;45297;-72
2021/07/05 07:50:18;;;;;;;;;1.75;1.00;;;;;26.60;44.91;100678.56;5060441;28;45160;-73
2021/07/05 07:52:43;;;;;;;;;1.00;1.00;;;;;26.65;44.58;100687.81;5059765;28;45293;-73
2021/07/05 07:55:11;;;;;;;;;4.00;2.75;;;;;26.57;44.97;100662.19;5069745;28;45392;-73
2021/07/05 07:57:37;;;;;;;;;1.25;1.25;;;;;26.54;44.58;100665.28;5066050;27;45357;-72
2021/07/05 08:00:14;;;;;;;;;2.00;2.00;;;;;26.73;44.87;100687.53;5069743;28;45397;-73
2021/07/05 08:02:40;;;;;;;;;1.75;1.75;;;;;26.73;45.11;100685.69;5059850;28;45287;-73
2021/07/05 08:05:09;;;;;;;;;0.75;0.75;;;;;26.67;44.98;100667.88;5076748;28;45340;-73
2021/07/05 08:07:37;;;;;;;;;1.33;1.00;;;;;26.62;44.83;100651.69;5082133;27;45660;-73
2021/07/05 08:10:04;;;;;;;;;1.50;1.50;;;;;26.55;44.84;100624.22;5067270;28;45360;-72
2021/07/05 08:12:29;;;;;;;;;2.00;1.00;;;;;26.94;44.81;100685.53;5063589;28;45616;-72
2021/07/05 08:14:56;;;;;;;;;1.00;1.00;;;;;26.93;44.78;100676.69;5067597;28;45384;-72
2021/07/05 08:17:21;;;;;;;;;1.00;1.00;;;;;26.97;44.27;100674.41;5059375;28;45439;-72
2021/07/05 08:19:47;;;;;;;;;2.33;2.00;;;;;27.07;44.11;100687.25;5059881;28;45342;-72
2021/07/05 08:22:12;;;;;;;;;2.33;2.00;;;;;26.98;44.07;100676.06;5058326;28;45568;-72
2021/07/05 08:24:38;;;;;;;;;1.33;1.00;;;;;26.93;43.94;100667.88;5059200;28;46138;-73
2021/07/05 08:27:03;;;;;;;;;2.25;2.00;;;;;26.98;44.25;100673.38;5071276;28;45584;-73
2021/07/05 08:29:28;;;;;;;;;4.50;2.00;;;;;27.09;44.22;100687.06;5063605;28;45260;-73
2021/07/05 08:31:54;;;;;;;;;1.00;1.00;;;;;27.15;43.95;100686.19;5075159;27;45461;-73
2021/07/05 08:34:19;;;;;;;;;2.75;1.50;;;;;27.20;43.88;100682.88;5060210;28;46086;-73
2021/07/05 08:36:45;;;;;;;;;0.33;0.33;;;;;26.93;44.14;100639.31;5067904;28;45436;-72
2021/07/05 08:39:13;;;;;;;;;2.00;2.00;;;;;27.03;44.41;100667.38;5070023;28;45577;-72
2021/07/05 08:41:38;;;;;;;;;3.00;1.00;;;;;26.84;43.78;100629.97;5061568;28;45644;-72
2021/07/05 08:44:04;;;;;;;;;2.00;1.50;;;;;27.09;43.93;100658.47;5062767;28;45454;-72
2021/07/05 08:46:32;;;;;;;;;1.75;1.00;;;;;27.15;43.77;100654.97;5062946;28;45164;-72
2021/07/05 08:48:58;;;;;;;;;2.00;2.00;;;;;27.27;44.06;100660.41;5061838;28;45286;-72
2021/07/05 08:51:24;;;;;;;;;2.00;2.00;;;;;27.19;43.86;100636.66;5062559;28;45521;-73
2021/07/05 08:53:52;;;;;;;;;1.00;1.00;;;;;27.31;43.61;100665.31;5062734;28;45647;-73
2021/07/05 08:56:18;;;;;;;;;1.00;1.00;;;;;27.24;44.01;100644.84;5069468;28;45334;-73
2021/07/05 08:58:46;;;;;;;;;1.00;1.00;;;;;27.15;44.03;100632.78;5069212;28;45270;-73
2021/07/05 09:01:12;;;;;;;;;2.75;2.75;;;;;27.29;43.88;100655.69;5062976;28;45216;-73
2021/07/05 09:03:38;;;;;;;;;1.50;1.50;;;;;27.36;43.72;100668.13;5067094;28;46662;-73
2021/07/05 09:06:17;;;;;;;;;2.00;2.00;;;;;27.24;44.19;100649.34;5075619;28;45544;-73
2021/07/05 09:08:55;;;;;;;;;1.00;1.00;;;;;27.27;44.00;100662.28;5062919;28;45505;-72
2021/07/05 09:11:39;;;;;;;;;2.50;2.00;;;;;27.15;43.71;100635.47;5065578;28;45399;-73
2021/07/05 09:14:19;;;;;;;;;1.00;1.00;;;;;27.06;44.18;100625.03;5075758;28;45429;-73
2021/07/05 09:16:47;;;;;;;;;1.25;1.00;;;;;27.21;43.71;100650.63;5062140;28;45507;-73
2021/07/05 09:19:32;;;;;;;;;3.25;1.00;;;;;27.31;43.97;100682.16;5062332;28;45272;-73
2021/07/05 09:22:01;;;;;;;;;2.75;2.75;;;;;27.20;43.54;100667.66;5060746;28;45654;-73
2021/07/05 09:24:32;;;;;;;;;2.00;2.00;;;;;27.28;43.77;100667.38;5062145;28;46433;-73
2021/07/05 09:27:09;;;;;;;;;2.00;2.00;;;;;27.31;43.68;100673.31;5065277;28;45363;-73
2021/07/05 09:29:40;;;;;;;;;0.00;0.00;;;;;27.16;43.65;100653.94;5073800;28;46259;-73
2021/07/05 09:32:11;;;;;;;;;1.00;1.00;;;;;27.24;43.76;100663.53;5076170;27;45334;-73
2021/07/05 09:34:37;;;;;;;;;1.00;1.00;;;;;27.27;43.91;100668.41;5061955;28;45452;-73
2021/07/05 09:37:19;;;;;;;;;2.00;2.00;;;;;27.27;43.64;100676.41;5068671;28;45304;-73
2021/07/05 09:40:00;;;;;;;;;3.00;2.00;;;;;27.24;44.19;100679.56;5075508;28;45363;-73
2021/07/05 09:42:27;;;;;;;;;1.67;1.67;;;;;27.17;44.15;100662.75;5061940;28;45377;-73
2021/07/05 09:44:53;;;;;;;;;3.00;3.00;;;;;27.16;44.26;100655.78;5061288;28;45273;-73
2021/07/05 09:47:19;;;;;;;;;2.00;2.00;;;;;27.16;43.97;100661.13;5061952;28;45335;-73
2021/07/05 09:49:46;;;;;;;;;2.50;2.50;;;;;27.15;43.81;100656.81;5061977;28;45384;-73
2021/07/05 09:52:26;;;;;;;;;2.75;2.75;;;;;27.28;43.65;100680.75;5060421;28;45383;-73
2021/07/05 09:54:58;;;;;;;;;5.50;3.50;;;;;27.12;43.86;100660.72;5069650;28;45513;-73
2021/07/05 09:57:30;;;;;;;;;2.67;2.67;;;;;27.18;43.72;100672.41;5066336;28;45402;-73
2021/07/05 10:00:06;;;;;;;;;3.00;3.00;;;;;27.24;43.86;100686.75;5060660;28;45328;-73
2021/07/05 10:02:33;;;;;;;;;1.25;1.25;;;;;27.28;43.66;100686.09;5061753;28;45282;-73
2021/07/05 10:05:08;;;;;;;;;1.00;1.00;;;;;27.28;44.16;100686.09;5077314;28;46215;-73
2021/07/05 10:07:33;;;;;;;;;4.75;2.00;;;;;27.09;44.10;100663.81;5062275;28;45230;-73
2021/07/05 10:09:58;;;;;;;;;2.50;2.50;;;;;27.04;44.05;100652.97;5061849;28;45339;-73
2021/07/05 10:12:27;;;;;;;;;3.00;2.00;;;;;27.25;43.55;100683.84;5064602;28;45184;-73
2021/07/05 10:15:04;;;;;;;;;1.33;1.00;;;;;27.20;43.49;100664.16;5070838;28;45479;-72
2021/07/05 10:17:40;;;;;;;;;3.00;2.00;;;;;27.22;43.66;100670.94;5061368;28;45371;-73
2021/07/05 10:20:27;;;;;;;;;2.33;1.33;;;;;27.05;44.02;100651.97;5060042;28;45382;-73
2021/07/05 10:22:57;;;;;;;;;2.00;2.00;;;;;27.13;43.79;100665.06;5060177;28;45430;-73
2021/07/05 10:25:24;;;;;;;;;3.00;2.00;;;;;27.17;44.04;100671.59;5060460;28;45328;-73
2021/07/05 10:27:50;;;;;;;;;1.33;1.33;;;;;27.10;43.70;100659.31;5061168;28;45268;-73
2021/07/05 10:30:17;;;;;;;;;1.50;1.00;;;;;27.19;43.64;100682.06;5071544;28;45452;-73
2021/07/05 10:32:45;;;;;;;;;3.00;2.00;;;;;27.24;43.78;100684.06;5070471;28;45323;-73
2021/07/05 10:35:13;;;;;;;;;2.00;2.00;;;;;27.22;43.79;100686.16;5060851;28;46459;-72
2021/07/05 10:37:56;;;;;;;;;1.00;1.00;;;;;27.10;43.58;100660.13;5072113;28;45627;-73
2021/07/05 10:40:32;;;;;;;;;1.00;1.00;;;;;27.15;43.82;100678.19;5061306;28;45469;-73
2021/07/05 10:45:39;;;;;;;;;1.00;1.00;;;;;27.22;43.78;100683.47;5065842;28;74110;-73
2021/07/05 10:48:07;;;;;;;;;1.00;1.00;;;;;27.18;43.95;100680.41;5067193;27;45497;-73
2021/07/05 10:50:45;;;;;;;;;2.00;2.00;;;;;27.22;43.77;100678.16;5076812;28;45369;-73
2021/07/05 10:53:32;;;;;;;;;3.00;3.00;;;;;27.21;43.96;100682.66;5073158;28;45251;-73
2021/07/05 10:55:59;;;;;;;;;2.33;2.33;;;;;27.09;43.90;100655.03;5079920;27;45553;-73
2021/07/05 10:58:29;;;;;;;;;2.33;2.33;;;;;26.99;43.43;100632.28;5069487;28;45483;-73
2021/07/05 11:00:57;;;;;;;;;3.00;3.00;;;;;27.15;44.33;100656.81;5062071;28;45271;-73
2021/07/05 11:03:37;;;;;;;;;3.00;2.00;;;;;27.22;44.12;100670.13;5059449;28;45513;-73
2021/07/05 11:06:11;;;;;;;;;3.00;3.00;;;;;27.03;43.64;100643.34;5060269;28;45512;-74
2021/07/05 11:08:42;;;;;;;;;3.75;2.75;;;;;27.25;44.05;100680.34;5060805;28;45260;-73
2021/07/05 11:11:34;;;;;;;;;3.50;2.25;;;;;27.15;44.03;100657.66;5061663;28;45346;-73
2021/07/05 11:14:15;;;;;;;;;1.25;1.25;;;;;27.25;43.68;100669.66;5060538;28;45798;-73
2021/07/05 11:16:54;;;;;;;;;2.25;1.00;;;;;27.04;44.06;100639.63;5060541;28;45834;-73
2021/07/05 11:19:41;;;;;;;;;1.00;1.00;;;;;27.10;43.93;100649.44;5060419;28;45237;-73
2021/07/05 11:22:20;;;;;;;;;1.00;1.00;;;;;27.14;44.05;100650.66;5060872;28;45232;-73
2021/07/05 11:24:50;;;;;;;;;1.00;1.00;;;;;27.22;44.09;100649.56;5060406;28;45293;-74
2021/07/05 11:27:39;;;;;;;;;1.50;1.50;;;;;27.23;44.09;100653.06;5074351;28;46977;-74
2021/07/05 11:30:29;;;;;;;;;2.00;2.00;;;;;27.24;43.28;100649.34;5080322;28;45492;-74
2021/07/05 11:32:59;;;;;;;;;2.25;1.00;;;;;27.23;43.98;100645.88;5060113;27;45303;-74